Aviation Digital Data Service (ADDS)

Output produced by METARs form (2134 UTC 24 March 2019)
found at http://www.aviationweather.gov/metar/data/
 
LIMA 241550Z 20005KT CAVOK 22/M01 Q1017
LIMG 241650Z 10010KT CAVOK 16/09 Q1018
LIEA 242120Z 10001KT CAVOK 09/09 Q1021
TAF LIEA 241700Z 2418/2518 VRB05KT CAVOK 
     BECMG 2510/2512 22010KT
       
LIMW 241820Z AUTO 27008KT 9999 NCD 19/M06 Q1018
TAF LIMW 241700Z 2418/2503 10015KT CAVOK 
     BECMG 2419/2421 VRB05KT
       
LIME 242120Z 01005KT CAVOK 12/03 Q1017 NOSIG
TAF LIME 241700Z 2418/2518 VRB05KT CAVOK 
     BECMG 2515/2517 36015KT
       
LIPE 242120Z 22005KT 190V250 CAVOK 14/03 Q1016
TAF LIPE 241700Z 2418/2518 VRB05KT CAVOK
       
LIPB 242050Z 00000KT CAVOK 12/03 Q1016 RMK MON INVIS
TAF LIPB 241700Z 2418/2518 VRB05KT CAVOK 
     BECMG 2511/2513 01020G35KT
       
LIRN 242120Z 20003KT CAVOK 13/11 Q1020 NOSIG
TAF LIRN 241700Z 2418/2518 VRB05KT CAVOK 
     BECMG 2510/2512 20010KT
       
LIBR 242120Z 23005KT CAVOK 10/08 Q1018
TAF LIBR 241700Z 2418/2518 VRB05KT CAVOK
       
LICC 242120Z 27007KT CAVOK 10/08 Q1020
TAF LICC 241700Z 2418/2518 28008KT CAVOK 
     BECMG 2510/2512 08010KT
       
LIPC 242055Z 21005KT CAVOK 12/07 Q1017 RMK SKC VIS MIN 9999 WIND THR11 /////KT WIND THR29 20003KT BLU
TAF LIPC 242000Z 2421/2506 22004KT CAVOK
       
LIRA 242120Z 11004KT CAVOK 10/06 Q1020
TAF LIRA 241700Z 2418/2518 VRB05KT CAVOK 
     BECMG 2508/2510 24010KT
       
LIBC 241850Z 34002KT CAVOK 12/06 Q1019
TAF LIBC 241700Z 2418/2518 22008KT CAVOK
       
LIED 242055Z 35004KT CAVOK 11/10 Q1021 RMK SKC VIS MIN 9999 WIND THR35 /////KT WIND THR17 /////KT BLU
TAF LIED 242000Z 2421/2506 32006KT CAVOK
       
LIEE 242120Z 35010KT CAVOK 12/07 Q1021
TAF LIEE 241700Z 2418/2518 32008KT CAVOK
       
LIPY 242050Z 17002KT CAVOK 10/05 Q1017
TAF LIPY 241700Z 2418/2518 24006KT CAVOK
       
LIRF 242120Z VRB01KT CAVOK 09/09 Q1020 NOSIG
TAF LIRF 241700Z 2418/2524 VRB05KT CAVOK 
     BECMG 2421/2424 3000 BR 
     TEMPO 2503/2508 0800 BCFG BKN005 
     BECMG 2508/2510 8000 
     BECMG 2510/2512 26010KT 
     BECMG 2515/2518 16010KT
       
LIMJ 242120Z 02003KT CAVOK 13/02 Q1019
TAF LIMJ 241700Z 2418/2518 14007KT CAVOK 
     BECMG 2516/2518 35012KT
       
LIPL 242055Z 27002KT CAVOK 11/05 Q1016 RMK SKC VIS MIN 9999 WIND THR31 32001KT WIND THR13 30002KT BLU
TAF LIPL 242000Z 2421/2506 VRB02KT CAVOK 
     PROB40 
     TEMPO 2422/2506 5000 BR
       
LIBV 242055Z 16002KT CAVOK 10/07 Q1018 RMK SKC VIS MIN 9999 WIND THR32 18003KT WIND THR14 16002KT BLU
TAF LIBV 242000Z 2421/2506 23005KT CAVOK 
     TEMPO 2502/2506 5000 BR
       
LIRM 242055Z 16002KT CAVOK 10/10 Q1020 RMK SKC VIS MIN 9999 WIND THR06 14004KT BLU
TAF LIRM 242000Z 2421/2506 07004KT CAVOK 
     PROB40 
     TEMPO 2501/2506 3000 BR
       
LIRS 242055Z 12002KT CAVOK 09/05 Q1019 RMK SKC VIS MIN 9999 WIND THR03 12005KT WIND THR21 11002KT BLU
TAF LIRS 242000Z 2421/2506 07008KT CAVOK 
     BECMG 2502/2504 VRB03KT
       
LIBG 241850Z 35003KT CAVOK 13/03 Q1018
TAF LIBG 241700Z 2418/2503 VRB05KT CAVOK
       
LIPS 242055Z 06004KT CAVOK 12/10 Q1017 RMK SKC VIS MIN 9999 WIND THR26 03004KT WIND THR08 05004KT BLU
TAF LIPS 242000Z 2421/2506 07003KT CAVOK 
     PROB30 
     TEMPO 2423/2506 5000 BR
       
LICA 242050Z 00000KT 9999 FEW020 10/08 Q1021
TAF LICA 241700Z 2418/2518 27010KT 9999 SCT025
       
LICD 242050Z 33002KT CAVOK 14/12 Q1022
TAF LICD 241700Z 2418/2518 32012KT 8000 FEW015 
     BECMG 2504/2507 22010KT
       
LIBN 242055Z VRB01KT CAVOK 08/07 Q1019 RMK SKC VIS MIN 9999 WWIND THR14 VRB01KT WIND THR32 VRB01KT BLU
TAF LIBN 241400Z 2415/2424 01010KT CAVOK 
     BECMG 2419/2421 VRB03KT
       
LIMZ 241950Z 21007KT CAVOK 08/04 Q1018
TAF LIMZ 241700Z 2418/2518 VRB05KT CAVOK 
     BECMG 2516/2518 36010KT
       
LIML 242120Z 26005KT CAVOK 15/01 Q1016 NOSIG
TAF LIML 241700Z 2418/2518 VRB05KT CAVOK 
     BECMG 2514/2516 35017KT 
     TEMPO 2516/2518 01020G35KT
       
LIMC 242120Z 20006KT CAVOK 15/00 Q1017 NOSIG
TAF LIMC 241700Z 2418/2524 VRB05KT CAVOK 
     BECMG 2513/2515 35017KT 
     TEMPO 2515/2521 01020G35KT
       
LIPO 242050Z 11001KT CAVOK 15/02 Q1016
TAF LIPO 241700Z 2418/2518 VRB05KT CAVOK 
     BECMG 2516/2518 35017KT
       
LIEO 242120Z VRB01KT CAVOK 09/06 Q1021
TAF LIEO 241700Z 2418/2518 28010KT CAVOK 
     BECMG 2515/2517 28020G30KT
       
LICJ 242120Z 19004KT CAVOK 12/09 Q1021
TAF LICJ 241700Z 2418/2518 35010KT CAVOK 
     BECMG 2418/2421 22008KT 
     BECMG 2508/2510 32012KT
       
LIBD 242120Z 24004KT CAVOK 11/07 Q1018
TAF LIBD 241700Z 2418/2518 26007KT CAVOK
       
LICG 241755Z 33003KT 9999 FEW005 SCT010 14/12 Q1022 RMK BKN VIS MIN 9999 WIND THR08 /////KT WIND THR21 33003KT BLU
TAF LICG 241700Z 2418/2503 VRB03KT 9999 SCT010 
     BECMG 2418/2419 30007KT
       
LIMP 241950Z 19006KT CAVOK 15/04 Q1017
TAF LIMP 241700Z 2418/2518 VRB05KT CAVOK
       
LIRQ 242120Z VRB02KT CAVOK 11/05 Q1019
TAF LIRQ 241700Z 2418/2518 VRB05KT CAVOK 
     BECMG 2506/2509 22012KT
       
LIRZ 242050Z VRB02KT CAVOK 11/05 Q1019
TAF LIRZ 241700Z 2418/2518 VRB05KT CAVOK 
     BECMG 2508/2510 22012KT
       
LIBP 242050Z 21004KT CAVOK 09/04 Q1018
TAF LIBP 241700Z 2418/2518 VRB05KT CAVOK
       
LIMS 241755Z 18002KT CAVOK 17/04 Q1016 RMK SKC VIS MIN 9999 WIND THR30 17003KT BLU
LIRP 242115Z 12002KT 3000 0400SW BCFG BR SCT001 08/08 Q1020 TEMPO 3000
TAF LIRP 241700Z 2418/2518 29005KT CAVOK 
     PROB40 
     TEMPO 2501/2506 5000 BR 
     BECMG 2510/2512 30010KT 
     BECMG 2516/2518 07013KT 9999 SCT030
       
LIRI 241650Z 18006KT CAVOK 14/13 Q1020
LIRE 242055Z 02003KT CAVOK 09/08 Q1020 RMK SKC VIS MIN 9999 WIND THR13 04002KT WIND THR31 /////KT BLU
TAF LIRE 242000Z 2421/2506 VRB03KT CAVOK
       
LICR 242050Z 01006KT CAVOK 14/03 Q1020
TAF LICR 241700Z 2418/2518 35012KT CAVOK
       
LIPR 242120Z 18003KT CAVOK 11/04 Q1017
TAF LIPR 242000Z 2421/2506 VRB04KT CAVOK
       
LIPQ 242120Z VRB01KT CAVOK 07/03 Q1017
TAF LIPQ 241700Z 2418/2518 VRB05KT CAVOK 
     TEMPO 2516/2518 SHRA
       
LICZ 242055Z 27008KT CAVOK 12/10 Q1021 RMK FEW FEW200 VIS MIN 9999 WIND THR28 27007KT WIND THR10 28006KT A3016 BLU
TAF LICZ 242000Z 2421/2506 VRB03KT CAVOK
       
LIMF 242120Z 20003KT 170V250 CAVOK 12/01 Q1017
TAF LIMF 241700Z 2418/2518 VRB05KT CAVOK 
     BECMG 2516/2518 05015KT
       
LICT 242055Z VRB02KT 9999 BCFG FEW006 10/08 Q1022 RMK FEW VIS MIN 9999 WIND THR13 05002KT BLU
TAF LICT 242000Z 2421/2506 VRB03KT CAVOK
       
LIPH 242120Z 03004KT 350V100 CAVOK 13/06 Q1017
TAF LIPH 241700Z 2418/2518 VRB05KT CAVOK 
     BECMG 2515/2517 06014KT 
     TEMPO 2515/2518 SHRA
       
LIRU 241650Z 22006KT CAVOK 17/06 Q1019
TAF LIRU 241400Z 2415/2424 22008KT CAVOK
       
LIPZ 242120Z 18005KT CAVOK 14/08 Q1016 NOSIG
TAF LIPZ 241700Z 2418/2524 VRB05KT CAVOK 
     BECMG 2514/2517 08012KT 
     TEMPO 2517/2523 RA
       
LIPX 242120Z 34004KT CAVOK 11/03 Q1016
TAF LIPX 242000Z 2421/2506 VRB05KT CAVOK
       
LIRV 241755Z /////KT CAVOK 14/07 Q1019
TAF LIRV 241400Z 2415/2424 VRB05KT CAVOK